sensor_id;sensor_type;location;lat;lon;timestamp;P1;durP1;ratioP1;P2;durP2;ratioP2
5608;SDS011;2826;51.354;9.588;2023-04-20T00:01:05;11.53;;;7.00;;
5608;SDS011;2826;51.354;9.588;2023-04-20T00:03:33;10.10;;;5.67;;
5608;SDS011;2826;51.354;9.588;2023-04-20T00:06:02;8.27;;;5.33;;
5608;SDS011;2826;51.354;9.588;2023-04-20T00:08:30;9.20;;;6.00;;
5608;SDS011;2826;51.354;9.588;2023-04-20T00:10:56;9.87;;;5.00;;
5608;SDS011;2826;51.354;9.588;2023-04-20T00:13:23;10.63;;;6.20;;
5608;SDS011;2826;51.354;9.588;2023-04-20T00:15:51;8.17;;;5.80;;
5608;SDS011;2826;51.354;9.588;2023-04-20T00:18:18;10.37;;;6.53;;
5608;SDS011;2826;51.354;9.588;2023-04-20T00:20:45;19.93;;;6.33;;
5608;SDS011;2826;51.354;9.588;2023-04-20T00:23:12;12.00;;;6.90;;
5608;SDS011;2826;51.354;9.588;2023-04-20T00:25:38;7.83;;;5.50;;
5608;SDS011;2826;51.354;9.588;2023-04-20T00:28:05;20.07;;;6.30;;
5608;SDS011;2826;51.354;9.588;2023-04-20T00:30:32;21.53;;;7.30;;
5608;SDS011;2826;51.354;9.588;2023-04-20T00:33:00;8.20;;;5.40;;
5608;SDS011;2826;51.354;9.588;2023-04-20T00:35:28;8.67;;;5.47;;
5608;SDS011;2826;51.354;9.588;2023-04-20T00:37:55;11.73;;;6.70;;
5608;SDS011;2826;51.354;9.588;2023-04-20T00:40:24;6.73;;;4.67;;
5608;SDS011;2826;51.354;9.588;2023-04-20T00:42:51;13.93;;;6.80;;
5608;SDS011;2826;51.354;9.588;2023-04-20T00:45:17;9.53;;;6.60;;
5608;SDS011;2826;51.354;9.588;2023-04-20T00:47:46;11.40;;;5.80;;
5608;SDS011;2826;51.354;9.588;2023-04-20T00:50:16;12.50;;;5.70;;
5608;SDS011;2826;51.354;9.588;2023-04-20T00:52:43;7.60;;;5.37;;
5608;SDS011;2826;51.354;9.588;2023-04-20T00:55:10;10.67;;;6.30;;
5608;SDS011;2826;51.354;9.588;2023-04-20T00:57:38;7.63;;;5.57;;
5608;SDS011;2826;51.354;9.588;2023-04-20T01:00:07;9.50;;;6.53;;
5608;SDS011;2826;51.354;9.588;2023-04-20T01:02:35;13.27;;;5.87;;
5608;SDS011;2826;51.354;9.588;2023-04-20T01:05:06;8.10;;;4.70;;
5608;SDS011;2826;51.354;9.588;2023-04-20T01:07:35;13.47;;;7.07;;
5608;SDS011;2826;51.354;9.588;2023-04-20T01:10:01;12.77;;;7.37;;
5608;SDS011;2826;51.354;9.588;2023-04-20T01:12:29;11.10;;;5.67;;
5608;SDS011;2826;51.354;9.588;2023-04-20T01:14:56;11.33;;;6.20;;
5608;SDS011;2826;51.354;9.588;2023-04-20T01:17:23;11.80;;;6.70;;
5608;SDS011;2826;51.354;9.588;2023-04-20T01:19:50;10.03;;;6.63;;
5608;SDS011;2826;51.354;9.588;2023-04-20T01:22:18;20.90;;;7.93;;
5608;SDS011;2826;51.354;9.588;2023-04-20T01:24:46;14.67;;;7.33;;
5608;SDS011;2826;51.354;9.588;2023-04-20T01:27:13;8.00;;;5.77;;
5608;SDS011;2826;51.354;9.588;2023-04-20T01:29:41;12.17;;;7.33;;
5608;SDS011;2826;51.354;9.588;2023-04-20T01:32:08;13.63;;;7.77;;
5608;SDS011;2826;51.354;9.588;2023-04-20T01:34:35;10.73;;;6.77;;
5608;SDS011;2826;51.354;9.588;2023-04-20T01:37:03;11.03;;;7.07;;
5608;SDS011;2826;51.354;9.588;2023-04-20T01:39:34;10.73;;;6.70;;
5608;SDS011;2826;51.354;9.588;2023-04-20T01:42:01;11.47;;;6.50;;
5608;SDS011;2826;51.354;9.588;2023-04-20T01:44:28;11.40;;;7.10;;
5608;SDS011;2826;51.354;9.588;2023-04-20T01:46:54;9.67;;;6.67;;
5608;SDS011;2826;51.354;9.588;2023-04-20T01:49:21;8.90;;;4.93;;
5608;SDS011;2826;51.354;9.588;2023-04-20T01:51:50;10.93;;;6.50;;
5608;SDS011;2826;51.354;9.588;2023-04-20T01:54:17;10.13;;;6.37;;
5608;SDS011;2826;51.354;9.588;2023-04-20T01:56:45;10.27;;;5.90;;
5608;SDS011;2826;51.354;9.588;2023-04-20T01:59:14;8.80;;;5.57;;
5608;SDS011;2826;51.354;9.588;2023-04-20T02:01:40;10.40;;;5.23;;
5608;SDS011;2826;51.354;9.588;2023-04-20T02:04:07;7.83;;;5.20;;
5608;SDS011;2826;51.354;9.588;2023-04-20T02:06:34;7.37;;;4.13;;
5608;SDS011;2826;51.354;9.588;2023-04-20T02:09:01;9.40;;;4.60;;
5608;SDS011;2826;51.354;9.588;2023-04-20T02:11:28;5.67;;;4.33;;
5608;SDS011;2826;51.354;9.588;2023-04-20T02:13:56;7.60;;;5.23;;
5608;SDS011;2826;51.354;9.588;2023-04-20T02:16:23;11.50;;;5.30;;
5608;SDS011;2826;51.354;9.588;2023-04-20T02:18:52;7.40;;;5.03;;
5608;SDS011;2826;51.354;9.588;2023-04-20T02:21:19;4.90;;;3.83;;
5608;SDS011;2826;51.354;9.588;2023-04-20T02:23:46;7.63;;;4.30;;
5608;SDS011;2826;51.354;9.588;2023-04-20T02:26:13;7.27;;;4.00;;
5608;SDS011;2826;51.354;9.588;2023-04-20T02:28:41;6.03;;;4.27;;
5608;SDS011;2826;51.354;9.588;2023-04-20T02:31:09;6.70;;;3.77;;
5608;SDS011;2826;51.354;9.588;2023-04-20T02:33:36;4.90;;;2.93;;
5608;SDS011;2826;51.354;9.588;2023-04-20T02:36:03;7.70;;;4.17;;
5608;SDS011;2826;51.354;9.588;2023-04-20T02:38:31;5.63;;;3.90;;
5608;SDS011;2826;51.354;9.588;2023-04-20T02:40:58;5.80;;;4.20;;
5608;SDS011;2826;51.354;9.588;2023-04-20T02:43:26;4.70;;;3.67;;
5608;SDS011;2826;51.354;9.588;2023-04-20T02:45:52;5.93;;;3.97;;
5608;SDS011;2826;51.354;9.588;2023-04-20T02:48:22;6.50;;;4.20;;
5608;SDS011;2826;51.354;9.588;2023-04-20T02:50:49;5.57;;;3.40;;
5608;SDS011;2826;51.354;9.588;2023-04-20T02:53:21;6.83;;;5.20;;
5608;SDS011;2826;51.354;9.588;2023-04-20T02:55:55;7.40;;;5.13;;
5608;SDS011;2826;51.354;9.588;2023-04-20T02:58:32;8.37;;;4.90;;
5608;SDS011;2826;51.354;9.588;2023-04-20T03:01:13;7.10;;;5.30;;
5608;SDS011;2826;51.354;9.588;2023-04-20T03:03:45;8.70;;;6.27;;
5608;SDS011;2826;51.354;9.588;2023-04-20T03:06:12;8.47;;;6.07;;
5608;SDS011;2826;51.354;9.588;2023-04-20T03:08:44;10.50;;;6.70;;
5608;SDS011;2826;51.354;9.588;2023-04-20T03:11:31;11.07;;;6.77;;
5608;SDS011;2826;51.354;9.588;2023-04-20T03:13:58;7.17;;;5.70;;
5608;SDS011;2826;51.354;9.588;2023-04-20T03:16:25;7.70;;;5.77;;
5608;SDS011;2826;51.354;9.588;2023-04-20T03:18:55;5.00;;;4.50;;
5608;SDS011;2826;51.354;9.588;2023-04-20T03:21:22;7.73;;;5.80;;
5608;SDS011;2826;51.354;9.588;2023-04-20T03:23:49;7.33;;;5.60;;
5608;SDS011;2826;51.354;9.588;2023-04-20T03:26:16;7.20;;;5.13;;
5608;SDS011;2826;51.354;9.588;2023-04-20T03:29:09;6.53;;;5.40;;
5608;SDS011;2826;51.354;9.588;2023-04-20T03:31:36;5.10;;;4.53;;
5608;SDS011;2826;51.354;9.588;2023-04-20T03:34:04;6.30;;;5.23;;
5608;SDS011;2826;51.354;9.588;2023-04-20T03:36:31;5.77;;;4.60;;
5608;SDS011;2826;51.354;9.588;2023-04-20T03:38:58;8.37;;;4.90;;
5608;SDS011;2826;51.354;9.588;2023-04-20T03:41:25;6.10;;;4.37;;
5608;SDS011;2826;51.354;9.588;2023-04-20T03:43:53;6.20;;;4.50;;
5608;SDS011;2826;51.354;9.588;2023-04-20T03:46:20;4.43;;;4.03;;
5608;SDS011;2826;51.354;9.588;2023-04-20T03:48:47;6.67;;;3.80;;
5608;SDS011;2826;51.354;9.588;2023-04-20T03:51:15;4.43;;;3.97;;
5608;SDS011;2826;51.354;9.588;2023-04-20T03:53:41;5.50;;;4.57;;
5608;SDS011;2826;51.354;9.588;2023-04-20T03:56:10;4.57;;;4.00;;
5608;SDS011;2826;51.354;9.588;2023-04-20T03:58:38;4.40;;;4.00;;
5608;SDS011;2826;51.354;9.588;2023-04-20T04:01:14;4.90;;;4.40;;
5608;SDS011;2826;51.354;9.588;2023-04-20T04:03:46;5.20;;;4.27;;
5608;SDS011;2826;51.354;9.588;2023-04-20T04:06:15;5.17;;;4.13;;
5608;SDS011;2826;51.354;9.588;2023-04-20T04:08:41;4.60;;;4.00;;
5608;SDS011;2826;51.354;9.588;2023-04-20T04:11:09;6.33;;;4.00;;
5608;SDS011;2826;51.354;9.588;2023-04-20T04:13:36;4.20;;;3.77;;
5608;SDS011;2826;51.354;9.588;2023-04-20T04:16:05;5.87;;;4.60;;
5608;SDS011;2826;51.354;9.588;2023-04-20T04:18:33;6.77;;;5.00;;
5608;SDS011;2826;51.354;9.588;2023-04-20T04:21:04;5.60;;;4.70;;
5608;SDS011;2826;51.354;9.588;2023-04-20T04:23:37;7.00;;;4.97;;
5608;SDS011;2826;51.354;9.588;2023-04-20T04:26:22;7.30;;;5.03;;
5608;SDS011;2826;51.354;9.588;2023-04-20T04:28:51;7.00;;;4.97;;
5608;SDS011;2826;51.354;9.588;2023-04-20T04:31:20;5.87;;;4.97;;
5608;SDS011;2826;51.354;9.588;2023-04-20T04:33:48;6.87;;;5.43;;
5608;SDS011;2826;51.354;9.588;2023-04-20T04:36:27;6.77;;;5.00;;
5608;SDS011;2826;51.354;9.588;2023-04-20T04:38:57;8.60;;;5.20;;
5608;SDS011;2826;51.354;9.588;2023-04-20T04:41:25;11.10;;;5.07;;
5608;SDS011;2826;51.354;9.588;2023-04-20T04:44:01;7.37;;;5.23;;
5608;SDS011;2826;51.354;9.588;2023-04-20T04:46:30;6.40;;;4.90;;
5608;SDS011;2826;51.354;9.588;2023-04-20T04:48:58;10.37;;;4.90;;
5608;SDS011;2826;51.354;9.588;2023-04-20T04:51:25;7.70;;;5.73;;
5608;SDS011;2826;51.354;9.588;2023-04-20T04:53:52;6.97;;;5.07;;
5608;SDS011;2826;51.354;9.588;2023-04-20T04:56:20;8.60;;;4.70;;
5608;SDS011;2826;51.354;9.588;2023-04-20T04:58:48;7.70;;;5.20;;
5608;SDS011;2826;51.354;9.588;2023-04-20T05:01:15;13.10;;;6.17;;
5608;SDS011;2826;51.354;9.588;2023-04-20T05:03:42;6.77;;;4.70;;
5608;SDS011;2826;51.354;9.588;2023-04-20T05:06:09;8.33;;;4.80;;
5608;SDS011;2826;51.354;9.588;2023-04-20T05:08:35;7.87;;;5.47;;
5608;SDS011;2826;51.354;9.588;2023-04-20T05:11:02;8.03;;;5.50;;
5608;SDS011;2826;51.354;9.588;2023-04-20T05:13:30;8.93;;;5.70;;
5608;SDS011;2826;51.354;9.588;2023-04-20T05:15:57;7.83;;;5.40;;
5608;SDS011;2826;51.354;9.588;2023-04-20T05:18:24;7.90;;;5.60;;
5608;SDS011;2826;51.354;9.588;2023-04-20T05:20:51;10.90;;;6.43;;
5608;SDS011;2826;51.354;9.588;2023-04-20T05:23:18;9.50;;;6.00;;
5608;SDS011;2826;51.354;9.588;2023-04-20T05:25:45;9.00;;;5.90;;
5608;SDS011;2826;51.354;9.588;2023-04-20T05:28:12;9.03;;;6.10;;
5608;SDS011;2826;51.354;9.588;2023-04-20T05:30:40;10.53;;;6.60;;
5608;SDS011;2826;51.354;9.588;2023-04-20T05:33:07;10.00;;;6.70;;
5608;SDS011;2826;51.354;9.588;2023-04-20T05:35:34;13.40;;;6.63;;
5608;SDS011;2826;51.354;9.588;2023-04-20T05:38:01;11.60;;;7.00;;
5608;SDS011;2826;51.354;9.588;2023-04-20T05:40:30;9.03;;;6.63;;
5608;SDS011;2826;51.354;9.588;2023-04-20T05:42:58;9.40;;;6.17;;
5608;SDS011;2826;51.354;9.588;2023-04-20T05:45:25;9.83;;;5.60;;
5608;SDS011;2826;51.354;9.588;2023-04-20T05:47:53;9.53;;;6.00;;
5608;SDS011;2826;51.354;9.588;2023-04-20T05:50:20;7.27;;;5.50;;
5608;SDS011;2826;51.354;9.588;2023-04-20T05:52:47;8.47;;;5.83;;
5608;SDS011;2826;51.354;9.588;2023-04-20T05:55:14;11.60;;;7.03;;
5608;SDS011;2826;51.354;9.588;2023-04-20T05:57:41;8.80;;;5.63;;
5608;SDS011;2826;51.354;9.588;2023-04-20T06:00:08;11.00;;;7.80;;
5608;SDS011;2826;51.354;9.588;2023-04-20T06:02:38;11.57;;;7.10;;
5608;SDS011;2826;51.354;9.588;2023-04-20T06:05:07;12.83;;;7.33;;
5608;SDS011;2826;51.354;9.588;2023-04-20T06:07:35;6.97;;;5.67;;
5608;SDS011;2826;51.354;9.588;2023-04-20T06:10:02;8.37;;;5.67;;
5608;SDS011;2826;51.354;9.588;2023-04-20T06:12:29;6.93;;;5.23;;
5608;SDS011;2826;51.354;9.588;2023-04-20T06:14:56;7.07;;;5.00;;
5608;SDS011;2826;51.354;9.588;2023-04-20T06:17:23;7.23;;;5.47;;
5608;SDS011;2826;51.354;9.588;2023-04-20T06:19:51;7.60;;;5.33;;
5608;SDS011;2826;51.354;9.588;2023-04-20T06:22:19;9.30;;;6.43;;
5608;SDS011;2826;51.354;9.588;2023-04-20T06:24:46;9.73;;;6.00;;
5608;SDS011;2826;51.354;9.588;2023-04-20T06:27:13;7.27;;;5.60;;
5608;SDS011;2826;51.354;9.588;2023-04-20T06:29:40;8.17;;;5.73;;
5608;SDS011;2826;51.354;9.588;2023-04-20T06:32:07;7.00;;;5.20;;
5608;SDS011;2826;51.354;9.588;2023-04-20T06:34:34;6.33;;;5.23;;
5608;SDS011;2826;51.354;9.588;2023-04-20T06:37:01;7.93;;;5.40;;
5608;SDS011;2826;51.354;9.588;2023-04-20T06:39:29;14.53;;;5.97;;
5608;SDS011;2826;51.354;9.588;2023-04-20T06:41:56;6.40;;;5.40;;
5608;SDS011;2826;51.354;9.588;2023-04-20T06:44:22;6.93;;;5.33;;
5608;SDS011;2826;51.354;9.588;2023-04-20T06:46:49;7.60;;;5.13;;
5608;SDS011;2826;51.354;9.588;2023-04-20T06:49:16;9.30;;;5.97;;
5608;SDS011;2826;51.354;9.588;2023-04-20T06:51:43;8.17;;;5.63;;
5608;SDS011;2826;51.354;9.588;2023-04-20T06:54:10;10.37;;;6.70;;
5608;SDS011;2826;51.354;9.588;2023-04-20T06:56:38;7.67;;;5.50;;
5608;SDS011;2826;51.354;9.588;2023-04-20T06:59:05;7.70;;;5.50;;
5608;SDS011;2826;51.354;9.588;2023-04-20T07:01:32;9.43;;;5.47;;
5608;SDS011;2826;51.354;9.588;2023-04-20T07:03:59;8.23;;;5.53;;
5608;SDS011;2826;51.354;9.588;2023-04-20T07:06:26;10.43;;;6.07;;
5608;SDS011;2826;51.354;9.588;2023-04-20T07:08:52;9.17;;;6.33;;
5608;SDS011;2826;51.354;9.588;2023-04-20T07:11:19;7.47;;;4.53;;
5608;SDS011;2826;51.354;9.588;2023-04-20T07:13:47;10.53;;;5.53;;
5608;SDS011;2826;51.354;9.588;2023-04-20T07:16:14;6.20;;;5.03;;
5608;SDS011;2826;51.354;9.588;2023-04-20T07:18:41;8.90;;;5.67;;
5608;SDS011;2826;51.354;9.588;2023-04-20T07:21:08;6.83;;;5.40;;
5608;SDS011;2826;51.354;9.588;2023-04-20T07:23:35;7.73;;;6.87;;
5608;SDS011;2826;51.354;9.588;2023-04-20T07:26:01;8.10;;;5.97;;
5608;SDS011;2826;51.354;9.588;2023-04-20T07:28:28;8.77;;;6.20;;
5608;SDS011;2826;51.354;9.588;2023-04-20T07:30:57;8.53;;;5.77;;
5608;SDS011;2826;51.354;9.588;2023-04-20T07:33:24;8.20;;;6.10;;
5608;SDS011;2826;51.354;9.588;2023-04-20T07:35:52;8.67;;;6.33;;
5608;SDS011;2826;51.354;9.588;2023-04-20T07:38:18;11.17;;;6.77;;
5608;SDS011;2826;51.354;9.588;2023-04-20T07:40:45;8.67;;;6.60;;
5608;SDS011;2826;51.354;9.588;2023-04-20T07:43:12;8.00;;;5.57;;
5608;SDS011;2826;51.354;9.588;2023-04-20T07:45:39;10.73;;;6.17;;
5608;SDS011;2826;51.354;9.588;2023-04-20T07:48:07;9.30;;;6.87;;
5608;SDS011;2826;51.354;9.588;2023-04-20T07:50:36;8.80;;;6.23;;
5608;SDS011;2826;51.354;9.588;2023-04-20T07:53:03;11.40;;;6.17;;
5608;SDS011;2826;51.354;9.588;2023-04-20T07:55:30;8.93;;;6.77;;
5608;SDS011;2826;51.354;9.588;2023-04-20T07:57:57;9.70;;;7.00;;
5608;SDS011;2826;51.354;9.588;2023-04-20T08:00:25;10.27;;;7.27;;
5608;SDS011;2826;51.354;9.588;2023-04-20T08:02:52;8.77;;;6.57;;
5608;SDS011;2826;51.354;9.588;2023-04-20T08:05:20;9.27;;;6.20;;
5608;SDS011;2826;51.354;9.588;2023-04-20T08:07:48;9.57;;;5.90;;
5608;SDS011;2826;51.354;9.588;2023-04-20T08:10:15;11.13;;;7.67;;
5608;SDS011;2826;51.354;9.588;2023-04-20T08:12:41;11.63;;;7.10;;
5608;SDS011;2826;51.354;9.588;2023-04-20T08:15:09;10.80;;;7.40;;
5608;SDS011;2826;51.354;9.588;2023-04-20T08:17:36;11.47;;;8.10;;
5608;SDS011;2826;51.354;9.588;2023-04-20T08:20:03;13.37;;;8.37;;
5608;SDS011;2826;51.354;9.588;2023-04-20T08:22:32;13.60;;;8.83;;
5608;SDS011;2826;51.354;9.588;2023-04-20T08:24:59;10.77;;;7.53;;
5608;SDS011;2826;51.354;9.588;2023-04-20T08:27:26;11.97;;;8.07;;
5608;SDS011;2826;51.354;9.588;2023-04-20T08:29:53;11.13;;;6.80;;
5608;SDS011;2826;51.354;9.588;2023-04-20T08:32:20;13.43;;;7.80;;
5608;SDS011;2826;51.354;9.588;2023-04-20T08:34:49;17.63;;;8.53;;
5608;SDS011;2826;51.354;9.588;2023-04-20T08:37:16;12.20;;;8.20;;
5608;SDS011;2826;51.354;9.588;2023-04-20T08:39:44;12.77;;;8.30;;
5608;SDS011;2826;51.354;9.588;2023-04-20T08:42:11;13.47;;;9.10;;
5608;SDS011;2826;51.354;9.588;2023-04-20T08:44:40;13.70;;;7.70;;
5608;SDS011;2826;51.354;9.588;2023-04-20T08:47:07;16.10;;;8.97;;
5608;SDS011;2826;51.354;9.588;2023-04-20T08:49:35;14.30;;;8.70;;
5608;SDS011;2826;51.354;9.588;2023-04-20T08:52:04;15.83;;;9.13;;
5608;SDS011;2826;51.354;9.588;2023-04-20T08:54:31;14.23;;;9.00;;
5608;SDS011;2826;51.354;9.588;2023-04-20T08:56:59;13.03;;;8.80;;
5608;SDS011;2826;51.354;9.588;2023-04-20T08:59:26;14.40;;;9.50;;
5608;SDS011;2826;51.354;9.588;2023-04-20T09:01:53;23.13;;;10.23;;
5608;SDS011;2826;51.354;9.588;2023-04-20T09:04:20;13.80;;;8.93;;
5608;SDS011;2826;51.354;9.588;2023-04-20T09:06:49;12.57;;;9.23;;
5608;SDS011;2826;51.354;9.588;2023-04-20T09:09:17;17.07;;;10.37;;
5608;SDS011;2826;51.354;9.588;2023-04-20T09:11:44;17.07;;;10.37;;
5608;SDS011;2826;51.354;9.588;2023-04-20T09:14:14;15.30;;;9.93;;
5608;SDS011;2826;51.354;9.588;2023-04-20T09:16:48;14.77;;;9.37;;
5608;SDS011;2826;51.354;9.588;2023-04-20T09:19:20;18.23;;;10.63;;
5608;SDS011;2826;51.354;9.588;2023-04-20T09:21:47;18.10;;;10.03;;
5608;SDS011;2826;51.354;9.588;2023-04-20T09:24:15;15.13;;;9.50;;
5608;SDS011;2826;51.354;9.588;2023-04-20T09:26:41;17.20;;;9.50;;
5608;SDS011;2826;51.354;9.588;2023-04-20T09:29:15;23.87;;;9.33;;
5608;SDS011;2826;51.354;9.588;2023-04-20T09:31:43;16.90;;;9.50;;
5608;SDS011;2826;51.354;9.588;2023-04-20T09:34:10;14.63;;;8.37;;
5608;SDS011;2826;51.354;9.588;2023-04-20T09:36:39;14.10;;;8.83;;
5608;SDS011;2826;51.354;9.588;2023-04-20T09:39:07;16.40;;;9.37;;
5608;SDS011;2826;51.354;9.588;2023-04-20T09:41:35;16.87;;;10.33;;
5608;SDS011;2826;51.354;9.588;2023-04-20T09:44:04;21.50;;;10.43;;
5608;SDS011;2826;51.354;9.588;2023-04-20T09:46:33;13.07;;;9.17;;
5608;SDS011;2826;51.354;9.588;2023-04-20T09:49:02;17.47;;;9.57;;
5608;SDS011;2826;51.354;9.588;2023-04-20T09:51:31;14.80;;;10.00;;
5608;SDS011;2826;51.354;9.588;2023-04-20T09:54:00;15.00;;;9.20;;
5608;SDS011;2826;51.354;9.588;2023-04-20T09:56:28;16.47;;;9.60;;
5608;SDS011;2826;51.354;9.588;2023-04-20T09:58:55;17.97;;;10.60;;
5608;SDS011;2826;51.354;9.588;2023-04-20T10:01:23;17.50;;;10.70;;
5608;SDS011;2826;51.354;9.588;2023-04-20T10:03:52;18.10;;;10.00;;
5608;SDS011;2826;51.354;9.588;2023-04-20T10:06:19;16.07;;;10.23;;
5608;SDS011;2826;51.354;9.588;2023-04-20T10:08:47;16.60;;;10.20;;
5608;SDS011;2826;51.354;9.588;2023-04-20T10:11:28;14.90;;;9.73;;
5608;SDS011;2826;51.354;9.588;2023-04-20T10:13:56;17.90;;;10.43;;
5608;SDS011;2826;51.354;9.588;2023-04-20T10:16:24;12.70;;;9.73;;
5608;SDS011;2826;51.354;9.588;2023-04-20T10:18:56;21.47;;;9.50;;
5608;SDS011;2826;51.354;9.588;2023-04-20T10:21:25;17.10;;;9.90;;
5608;SDS011;2826;51.354;9.588;2023-04-20T10:23:52;14.70;;;10.10;;
5608;SDS011;2826;51.354;9.588;2023-04-20T10:26:19;16.40;;;9.87;;
5608;SDS011;2826;51.354;9.588;2023-04-20T10:28:46;14.53;;;9.07;;
5608;SDS011;2826;51.354;9.588;2023-04-20T10:31:13;15.20;;;9.37;;
5608;SDS011;2826;51.354;9.588;2023-04-20T10:33:48;16.87;;;9.70;;
5608;SDS011;2826;51.354;9.588;2023-04-20T10:36:23;15.83;;;9.67;;
5608;SDS011;2826;51.354;9.588;2023-04-20T10:38:53;15.27;;;9.60;;
5608;SDS011;2826;51.354;9.588;2023-04-20T10:41:20;13.70;;;9.63;;
5608;SDS011;2826;51.354;9.588;2023-04-20T10:43:47;13.97;;;8.87;;
5608;SDS011;2826;51.354;9.588;2023-04-20T10:46:14;13.70;;;9.13;;
5608;SDS011;2826;51.354;9.588;2023-04-20T10:48:48;16.50;;;10.37;;
5608;SDS011;2826;51.354;9.588;2023-04-20T10:51:16;15.30;;;9.20;;
5608;SDS011;2826;51.354;9.588;2023-04-20T10:53:44;16.63;;;10.97;;
5608;SDS011;2826;51.354;9.588;2023-04-20T10:56:11;15.80;;;10.40;;
5608;SDS011;2826;51.354;9.588;2023-04-20T10:58:38;13.10;;;10.10;;
5608;SDS011;2826;51.354;9.588;2023-04-20T11:01:05;13.43;;;9.67;;
5608;SDS011;2826;51.354;9.588;2023-04-20T11:03:32;17.03;;;9.03;;
5608;SDS011;2826;51.354;9.588;2023-04-20T11:05:59;13.87;;;9.50;;
5608;SDS011;2826;51.354;9.588;2023-04-20T11:08:37;13.40;;;9.67;;
5608;SDS011;2826;51.354;9.588;2023-04-20T11:11:15;14.10;;;7.50;;
5608;SDS011;2826;51.354;9.588;2023-04-20T11:13:43;7.17;;;6.10;;
5608;SDS011;2826;51.354;9.588;2023-04-20T11:16:10;9.33;;;7.53;;
5608;SDS011;2826;51.354;9.588;2023-04-20T11:18:46;9.50;;;6.60;;
5608;SDS011;2826;51.354;9.588;2023-04-20T11:21:15;8.23;;;6.17;;
5608;SDS011;2826;51.354;9.588;2023-04-20T11:23:42;7.53;;;6.13;;
5608;SDS011;2826;51.354;9.588;2023-04-20T11:26:10;10.40;;;7.13;;
5608;SDS011;2826;51.354;9.588;2023-04-20T11:28:37;9.53;;;6.50;;
5608;SDS011;2826;51.354;9.588;2023-04-20T11:31:04;9.57;;;6.50;;
5608;SDS011;2826;51.354;9.588;2023-04-20T11:33:31;7.50;;;6.70;;
5608;SDS011;2826;51.354;9.588;2023-04-20T11:35:58;8.60;;;6.00;;
5608;SDS011;2826;51.354;9.588;2023-04-20T11:38:26;9.20;;;7.07;;
5608;SDS011;2826;51.354;9.588;2023-04-20T11:40:54;12.47;;;9.07;;
5608;SDS011;2826;51.354;9.588;2023-04-20T11:43:22;8.83;;;7.23;;
5608;SDS011;2826;51.354;9.588;2023-04-20T11:45:50;10.90;;;8.23;;
5608;SDS011;2826;51.354;9.588;2023-04-20T11:48:17;9.77;;;7.77;;
5608;SDS011;2826;51.354;9.588;2023-04-20T11:50:44;8.43;;;6.70;;
5608;SDS011;2826;51.354;9.588;2023-04-20T11:53:11;7.50;;;5.57;;
5608;SDS011;2826;51.354;9.588;2023-04-20T11:55:39;9.63;;;6.90;;
5608;SDS011;2826;51.354;9.588;2023-04-20T11:58:06;9.80;;;6.80;;
5608;SDS011;2826;51.354;9.588;2023-04-20T12:00:34;8.00;;;6.47;;
5608;SDS011;2826;51.354;9.588;2023-04-20T12:03:01;8.70;;;6.40;;
5608;SDS011;2826;51.354;9.588;2023-04-20T12:05:28;5.37;;;4.67;;
5608;SDS011;2826;51.354;9.588;2023-04-20T12:07:55;7.13;;;5.50;;
5608;SDS011;2826;51.354;9.588;2023-04-20T12:10:21;6.23;;;4.40;;
5608;SDS011;2826;51.354;9.588;2023-04-20T12:12:48;6.40;;;5.00;;
5608;SDS011;2826;51.354;9.588;2023-04-20T12:15:15;7.13;;;5.20;;
5608;SDS011;2826;51.354;9.588;2023-04-20T12:17:43;5.83;;;5.17;;
5608;SDS011;2826;51.354;9.588;2023-04-20T12:20:10;6.80;;;5.23;;
5608;SDS011;2826;51.354;9.588;2023-04-20T12:22:37;5.83;;;4.53;;
5608;SDS011;2826;51.354;9.588;2023-04-20T12:25:05;4.80;;;4.30;;
5608;SDS011;2826;51.354;9.588;2023-04-20T12:27:32;6.17;;;4.70;;
5608;SDS011;2826;51.354;9.588;2023-04-20T12:29:59;6.60;;;4.97;;
5608;SDS011;2826;51.354;9.588;2023-04-20T12:32:26;6.80;;;3.90;;
5608;SDS011;2826;51.354;9.588;2023-04-20T12:34:54;7.03;;;4.30;;
5608;SDS011;2826;51.354;9.588;2023-04-20T12:37:21;5.50;;;4.27;;
5608;SDS011;2826;51.354;9.588;2023-04-20T12:39:47;5.00;;;4.50;;
5608;SDS011;2826;51.354;9.588;2023-04-20T12:42:14;5.10;;;4.33;;
5608;SDS011;2826;51.354;9.588;2023-04-20T12:44:41;5.67;;;4.40;;
5608;SDS011;2826;51.354;9.588;2023-04-20T12:47:08;5.50;;;4.70;;
5608;SDS011;2826;51.354;9.588;2023-04-20T12:49:35;5.90;;;4.60;;
5608;SDS011;2826;51.354;9.588;2023-04-20T12:52:03;5.30;;;4.30;;
5608;SDS011;2826;51.354;9.588;2023-04-20T12:54:31;5.50;;;4.23;;
5608;SDS011;2826;51.354;9.588;2023-04-20T12:56:58;4.93;;;4.30;;
5608;SDS011;2826;51.354;9.588;2023-04-20T12:59:24;5.53;;;4.67;;
5608;SDS011;2826;51.354;9.588;2023-04-20T13:01:51;5.80;;;5.03;;
5608;SDS011;2826;51.354;9.588;2023-04-20T13:04:18;9.80;;;4.90;;
5608;SDS011;2826;51.354;9.588;2023-04-20T13:06:44;6.27;;;4.27;;
5608;SDS011;2826;51.354;9.588;2023-04-20T13:09:13;6.80;;;5.00;;
5608;SDS011;2826;51.354;9.588;2023-04-20T13:11:39;5.10;;;4.13;;
5608;SDS011;2826;51.354;9.588;2023-04-20T13:14:06;5.67;;;5.07;;
5608;SDS011;2826;51.354;9.588;2023-04-20T13:16:32;5.80;;;4.77;;
5608;SDS011;2826;51.354;9.588;2023-04-20T13:18:59;11.83;;;5.10;;
5608;SDS011;2826;51.354;9.588;2023-04-20T13:21:25;8.90;;;4.90;;
5608;SDS011;2826;51.354;9.588;2023-04-20T13:23:52;6.37;;;5.70;;
5608;SDS011;2826;51.354;9.588;2023-04-20T13:26:20;6.93;;;5.33;;
5608;SDS011;2826;51.354;9.588;2023-04-20T13:28:47;5.13;;;4.63;;
5608;SDS011;2826;51.354;9.588;2023-04-20T13:31:14;7.23;;;5.60;;
5608;SDS011;2826;51.354;9.588;2023-04-20T13:33:41;8.73;;;5.33;;
5608;SDS011;2826;51.354;9.588;2023-04-20T13:36:07;6.67;;;5.00;;
5608;SDS011;2826;51.354;9.588;2023-04-20T13:38:34;6.53;;;5.73;;
5608;SDS011;2826;51.354;9.588;2023-04-20T13:41:00;6.63;;;5.90;;
5608;SDS011;2826;51.354;9.588;2023-04-20T13:43:28;5.60;;;5.00;;
5608;SDS011;2826;51.354;9.588;2023-04-20T13:45:55;11.90;;;5.70;;
5608;SDS011;2826;51.354;9.588;2023-04-20T13:48:22;18.00;;;5.70;;
5608;SDS011;2826;51.354;9.588;2023-04-20T13:50:49;6.37;;;5.40;;
5608;SDS011;2826;51.354;9.588;2023-04-20T13:53:15;6.43;;;5.53;;
5608;SDS011;2826;51.354;9.588;2023-04-20T13:55:42;8.03;;;5.80;;
5608;SDS011;2826;51.354;9.588;2023-04-20T13:58:08;7.63;;;5.40;;
5608;SDS011;2826;51.354;9.588;2023-04-20T14:00:38;6.53;;;5.47;;
5608;SDS011;2826;51.354;9.588;2023-04-20T14:03:04;6.60;;;5.50;;
5608;SDS011;2826;51.354;9.588;2023-04-20T14:05:31;7.70;;;5.90;;
5608;SDS011;2826;51.354;9.588;2023-04-20T14:07:58;8.20;;;6.40;;
5608;SDS011;2826;51.354;9.588;2023-04-20T14:10:25;6.80;;;5.50;;
5608;SDS011;2826;51.354;9.588;2023-04-20T14:12:52;7.63;;;6.03;;
5608;SDS011;2826;51.354;9.588;2023-04-20T14:15:19;6.97;;;5.80;;
5608;SDS011;2826;51.354;9.588;2023-04-20T14:17:47;7.43;;;5.40;;
5608;SDS011;2826;51.354;9.588;2023-04-20T14:20:14;6.43;;;5.17;;
5608;SDS011;2826;51.354;9.588;2023-04-20T14:22:41;6.70;;;5.03;;
5608;SDS011;2826;51.354;9.588;2023-04-20T14:25:08;7.97;;;5.37;;
5608;SDS011;2826;51.354;9.588;2023-04-20T14:27:36;14.87;;;8.30;;
5608;SDS011;2826;51.354;9.588;2023-04-20T14:30:03;7.10;;;5.90;;
5608;SDS011;2826;51.354;9.588;2023-04-20T14:32:30;6.00;;;5.20;;
5608;SDS011;2826;51.354;9.588;2023-04-20T14:35:00;7.50;;;5.70;;
5608;SDS011;2826;51.354;9.588;2023-04-20T14:37:28;7.10;;;6.40;;
5608;SDS011;2826;51.354;9.588;2023-04-20T14:39:55;6.30;;;5.50;;
5608;SDS011;2826;51.354;9.588;2023-04-20T14:42:22;7.00;;;6.10;;
5608;SDS011;2826;51.354;9.588;2023-04-20T14:44:48;8.60;;;6.00;;
5608;SDS011;2826;51.354;9.588;2023-04-20T14:47:15;8.83;;;6.77;;
5608;SDS011;2826;51.354;9.588;2023-04-20T14:49:42;7.03;;;6.00;;
5608;SDS011;2826;51.354;9.588;2023-04-20T14:52:10;8.83;;;6.87;;
5608;SDS011;2826;51.354;9.588;2023-04-20T14:54:37;12.50;;;8.03;;
5608;SDS011;2826;51.354;9.588;2023-04-20T14:57:04;24.00;;;10.80;;
5608;SDS011;2826;51.354;9.588;2023-04-20T14:59:30;28.70;;;13.40;;
5608;SDS011;2826;51.354;9.588;2023-04-20T15:01:57;15.73;;;9.93;;
5608;SDS011;2826;51.354;9.588;2023-04-20T15:04:24;10.03;;;7.57;;
5608;SDS011;2826;51.354;9.588;2023-04-20T15:06:50;8.33;;;6.70;;
5608;SDS011;2826;51.354;9.588;2023-04-20T15:09:18;8.27;;;6.27;;
5608;SDS011;2826;51.354;9.588;2023-04-20T15:11:45;7.43;;;6.00;;
5608;SDS011;2826;51.354;9.588;2023-04-20T15:14:12;10.07;;;7.10;;